createdAt,value
2023-02-15T00:01:12.402Z,58.09
2023-02-15T00:03:42.534Z,57.96
2023-02-15T00:06:10.769Z,57.90
2023-02-15T00:08:39.306Z,57.70
2023-02-15T00:11:12.998Z,57.70
2023-02-15T00:13:43.785Z,57.81
2023-02-15T00:16:31.798Z,57.78
2023-02-15T00:19:02.825Z,57.91
2023-02-15T00:21:33.095Z,57.75
2023-02-15T00:24:03.128Z,57.80
2023-02-15T00:26:31.618Z,57.82
2023-02-15T00:29:00.149Z,57.75
2023-02-15T00:31:31.821Z,57.73
2023-02-15T00:34:04.736Z,57.80
2023-02-15T00:36:33.373Z,57.91
2023-02-15T00:39:01.339Z,57.85
2023-02-15T00:41:29.381Z,57.95
2023-02-15T00:43:57.477Z,57.88
2023-02-15T00:46:25.648Z,57.98
2023-02-15T00:48:53.710Z,57.99
2023-02-15T00:51:21.946Z,58.02
2023-02-15T00:53:50.270Z,57.92
2023-02-15T00:56:18.929Z,57.95
2023-02-15T00:58:47.808Z,57.99
2023-02-15T01:01:22.068Z,58.01
2023-02-15T01:03:52.770Z,58.03
2023-02-15T01:06:21.048Z,57.92
2023-02-15T01:08:49.528Z,58.19
2023-02-15T01:11:23.844Z,58.06
2023-02-15T01:13:58.041Z,58.08
2023-02-15T01:16:31.290Z,58.17
2023-02-15T01:19:00.681Z,57.99
2023-02-15T01:21:28.915Z,58.13
2023-02-15T01:23:56.805Z,58.10
2023-02-15T01:26:25.094Z,58.02
2023-02-15T01:28:53.294Z,58.21
2023-02-15T01:31:22.521Z,58.27
2023-02-15T01:33:50.696Z,58.31
2023-02-15T01:36:19.188Z,58.49
2023-02-15T01:38:47.477Z,58.61
2023-02-15T01:41:21.618Z,58.48
2023-02-15T01:43:53.619Z,58.57
2023-02-15T01:46:27.843Z,58.55
2023-02-15T01:49:16.763Z,58.61
2023-02-15T01:51:48.917Z,58.52
2023-02-15T01:54:30.907Z,58.55
2023-02-15T01:57:09.015Z,58.87
2023-02-15T01:59:40.721Z,58.99
2023-02-15T02:02:12.343Z,59.08
2023-02-15T02:04:46.879Z,59.20
2023-02-15T02:07:21.906Z,59.22
2023-02-15T02:09:51.068Z,59.34
2023-02-15T02:12:19.942Z,59.44
2023-02-15T02:14:49.409Z,59.47
2023-02-15T02:17:40.315Z,59.63
2023-02-15T02:20:31.010Z,59.85
2023-02-15T02:23:20.798Z,59.88
2023-02-15T02:26:16.574Z,60.01
2023-02-15T02:29:05.296Z,60.10
2023-02-15T02:32:02.531Z,60.28
2023-02-15T02:34:39.601Z,60.35
2023-02-15T02:38:01.016Z,60.45
2023-02-15T02:41:10.380Z,60.77
2023-02-15T02:43:44.351Z,60.87
2023-02-15T02:46:38.568Z,60.97
2023-02-15T02:49:37.493Z,61.23
2023-02-15T02:52:28.043Z,61.37
2023-02-15T02:54:57.483Z,61.28
2023-02-15T02:57:28.311Z,61.20
2023-02-15T03:00:00.930Z,61.20
2023-02-15T03:02:34.474Z,61.13
2023-02-15T03:05:09.496Z,61.00
2023-02-15T03:07:38.991Z,61.00
2023-02-15T03:10:09.444Z,60.90
2023-02-15T03:12:41.097Z,61.00
2023-02-15T03:15:12.167Z,61.44
2023-02-15T03:17:46.167Z,61.53
2023-02-15T03:20:37.878Z,61.83
2023-02-15T03:23:13.524Z,62.02
2023-02-15T03:25:45.143Z,62.15
2023-02-15T03:28:23.146Z,62.47
2023-02-15T03:30:57.113Z,62.37
2023-02-15T03:33:29.003Z,62.47
2023-02-15T03:36:12.445Z,62.69
2023-02-15T03:39:00.851Z,62.98
2023-02-15T03:41:36.949Z,62.96
2023-02-15T03:44:17.791Z,63.05
2023-02-15T03:46:57.374Z,63.04
2023-02-15T03:49:37.512Z,63.03
2023-02-15T03:52:09.396Z,62.84
2023-02-15T03:54:44.886Z,62.92
2023-02-15T03:57:44.271Z,62.83
2023-02-15T04:00:55.002Z,62.82
2023-02-15T04:03:40.536Z,62.96
2023-02-15T04:06:08.818Z,63.04
2023-02-15T04:08:55.495Z,63.02
2023-02-15T04:11:23.435Z,63.12
2023-02-15T04:13:57.382Z,63.15
2023-02-15T04:16:25.982Z,62.92
2023-02-15T04:19:14.272Z,63.04
2023-02-15T04:22:01.161Z,62.95
2023-02-15T04:24:48.046Z,63.18
2023-02-15T04:27:17.732Z,63.27
2023-02-15T04:29:46.160Z,63.41
2023-02-15T04:32:14.417Z,63.42
2023-02-15T04:34:42.399Z,63.76
2023-02-15T04:37:11.393Z,63.90
2023-02-15T04:39:40.032Z,63.93
2023-02-15T04:42:08.584Z,64.23
2023-02-15T04:44:36.559Z,64.42
2023-02-15T04:47:04.675Z,64.42
2023-02-15T04:49:32.815Z,64.54
2023-02-15T04:52:01.176Z,64.70
2023-02-15T04:54:29.102Z,64.85
2023-02-15T04:56:57.131Z,64.89
2023-02-15T04:59:25.064Z,64.84
2023-02-15T05:01:53.210Z,64.82
2023-02-15T05:04:21.401Z,64.88
2023-02-15T05:06:49.562Z,64.64
2023-02-15T05:09:18.336Z,64.78
2023-02-15T05:11:47.274Z,64.81
2023-02-15T05:14:15.395Z,64.80
2023-02-15T05:16:43.506Z,64.78
2023-02-15T05:19:11.980Z,64.98
2023-02-15T05:22:21.764Z,64.88
2023-02-15T05:25:19.518Z,65.23
2023-02-15T05:28:06.763Z,65.14
2023-02-15T05:30:40.911Z,64.89
2023-02-15T05:33:09.204Z,64.82
2023-02-15T05:35:37.353Z,64.57
2023-02-15T05:38:05.281Z,64.52
2023-02-15T05:40:33.519Z,64.33
2023-02-15T05:43:01.725Z,64.40
2023-02-15T05:45:29.844Z,64.64
2023-02-15T05:47:59.413Z,64.62
2023-02-15T05:50:28.516Z,64.61
2023-02-15T05:52:56.648Z,64.77
2023-02-15T05:55:24.628Z,64.95
2023-02-15T05:57:52.634Z,65.02
2023-02-15T06:00:21.841Z,65.07
2023-02-15T06:02:50.113Z,65.12
2023-02-15T06:05:18.415Z,65.12
2023-02-15T06:07:47.508Z,65.14
2023-02-15T06:10:17.078Z,65.27
2023-02-15T06:12:46.157Z,65.44
2023-02-15T06:15:15.081Z,65.40
2023-02-15T06:17:43.786Z,65.48
2023-02-15T06:20:12.354Z,65.44
2023-02-15T06:22:56.714Z,65.50
2023-02-15T06:25:25.690Z,65.65
2023-02-15T06:27:53.687Z,65.76
2023-02-15T06:30:21.992Z,65.83
2023-02-15T06:32:54.462Z,65.94
2023-02-15T06:35:23.173Z,66.11
2023-02-15T06:37:51.282Z,66.13
2023-02-15T06:40:19.557Z,66.30
2023-02-15T06:42:47.646Z,66.35
2023-02-15T06:45:15.762Z,66.29
2023-02-15T06:47:44.019Z,66.22
2023-02-15T06:50:12.275Z,66.10
2023-02-15T06:52:40.316Z,66.20
2023-02-15T06:55:08.556Z,66.08
2023-02-15T06:57:36.604Z,66.18
2023-02-15T07:00:06.107Z,66.22
2023-02-15T07:02:43.228Z,66.45
2023-02-15T07:05:13.012Z,66.52
2023-02-15T07:07:41.145Z,66.48
2023-02-15T07:10:29.346Z,66.39
2023-02-15T07:12:58.533Z,66.14
2023-02-15T07:15:26.638Z,65.95
2023-02-15T07:17:54.736Z,65.90
2023-02-15T07:20:24.427Z,65.74
2023-02-15T07:23:12.383Z,65.69
2023-02-15T07:25:40.617Z,65.89
2023-02-15T07:28:10.568Z,65.83
2023-02-15T07:30:38.539Z,65.85
2023-02-15T07:33:24.685Z,65.80
2023-02-15T07:35:55.354Z,66.12
2023-02-15T07:38:23.819Z,66.15
2023-02-15T07:40:52.037Z,66.14
2023-02-15T07:43:19.953Z,65.89
2023-02-15T07:45:47.999Z,65.99
2023-02-15T07:48:16.013Z,65.90
2023-02-15T07:50:44.299Z,65.83
2023-02-15T07:53:13.521Z,65.96
2023-02-15T07:55:41.645Z,65.86
2023-02-15T07:58:09.623Z,65.73
2023-02-15T08:00:57.482Z,65.68
2023-02-15T08:03:27.914Z,65.92
2023-02-15T08:06:01.425Z,65.81
2023-02-15T08:08:32.591Z,65.54
2023-02-15T08:11:21.305Z,65.22
2023-02-15T08:14:04.858Z,65.01
2023-02-15T08:16:40.894Z,64.97
2023-02-15T08:19:21.952Z,64.89
2023-02-15T08:21:52.940Z,64.89
2023-02-15T08:24:23.462Z,64.74
2023-02-15T08:26:53.179Z,64.84
2023-02-15T08:29:25.325Z,64.53
2023-02-15T08:32:03.292Z,64.57
2023-02-15T08:34:34.206Z,63.99
2023-02-15T08:37:02.509Z,63.97
2023-02-15T08:39:30.780Z,63.19
2023-02-15T08:41:59.810Z,62.48
2023-02-15T08:44:28.044Z,62.17
2023-02-15T08:46:58.554Z,62.28
2023-02-15T08:49:26.381Z,62.15
2023-02-15T08:51:54.464Z,61.53
2023-02-15T08:54:23.050Z,59.90
2023-02-15T08:56:51.097Z,58.16
2023-02-15T08:59:21.479Z,57.37
2023-02-15T09:01:52.352Z,56.22
2023-02-15T09:04:21.442Z,55.47
2023-02-15T09:06:50.959Z,56.02
2023-02-15T09:09:19.789Z,56.31
2023-02-15T09:11:54.134Z,56.19
2023-02-15T09:14:27.216Z,55.04
2023-02-15T09:16:56.187Z,54.37
2023-02-15T09:19:24.719Z,53.62
2023-02-15T09:21:53.080Z,51.52
2023-02-15T09:24:21.099Z,50.38
2023-02-15T09:26:49.624Z,48.31
2023-02-15T09:29:19.431Z,46.71
2023-02-15T09:31:51.032Z,45.34
2023-02-15T09:34:22.226Z,44.49
2023-02-15T09:36:52.051Z,43.18
2023-02-15T09:39:25.553Z,42.47
2023-02-15T09:41:56.459Z,41.33
2023-02-15T09:44:42.672Z,40.60
2023-02-15T09:47:44.537Z,40.11
2023-02-15T09:50:37.082Z,40.73
2023-02-15T09:53:22.760Z,39.67
2023-02-15T09:56:03.380Z,38.77
2023-02-15T09:58:51.830Z,38.34
2023-02-15T10:01:26.297Z,37.89
2023-02-15T10:04:06.387Z,36.83
2023-02-15T10:06:43.302Z,36.44
2023-02-15T10:09:42.204Z,35.25
2023-02-15T10:12:44.444Z,34.56
2023-02-15T10:15:53.173Z,34.20
2023-02-15T10:18:52.989Z,32.85
2023-02-15T10:21:42.865Z,32.14
2023-02-15T10:24:40.482Z,31.81
2023-02-15T10:27:14.421Z,31.11
2023-02-15T10:30:08.749Z,31.12
2023-02-15T10:32:59.754Z,31.36
2023-02-15T10:35:41.788Z,31.29
2023-02-15T10:38:15.811Z,30.36
2023-02-15T10:40:53.125Z,29.52
2023-02-15T10:43:27.273Z,29.89
2023-02-15T10:46:04.390Z,30.20
2023-02-15T10:48:49.283Z,30.06
2023-02-15T10:51:38.122Z,28.97
2023-02-15T10:54:19.298Z,27.99
2023-02-15T10:56:57.278Z,27.71
2023-02-15T10:59:54.097Z,27.12
2023-02-15T11:02:28.109Z,26.87
2023-02-15T11:05:21.349Z,26.91
2023-02-15T11:07:53.990Z,27.44
2023-02-15T11:10:37.783Z,27.65
2023-02-15T11:13:20.495Z,26.91
2023-02-15T11:16:10.812Z,26.25
2023-02-15T11:18:45.039Z,26.23
2023-02-15T11:21:21.837Z,25.69
2023-02-15T11:23:50.367Z,24.57
2023-02-15T11:26:30.105Z,24.61
2023-02-15T11:29:43.306Z,24.53
2023-02-15T11:32:24.879Z,24.02
2023-02-15T11:35:00.547Z,23.77
2023-02-15T11:37:49.680Z,23.37
2023-02-15T11:40:25.826Z,22.67
2023-02-15T11:43:01.771Z,22.83
2023-02-15T11:45:35.513Z,21.48
2023-02-15T11:48:12.323Z,21.21
2023-02-15T11:50:42.007Z,21.06
2023-02-15T11:53:19.161Z,21.98
2023-02-15T11:55:49.614Z,21.96
2023-02-15T11:58:36.871Z,21.78
2023-02-15T12:01:07.547Z,21.15
2023-02-15T12:03:46.605Z,21.46
2023-02-15T12:06:24.619Z,21.58
2023-02-15T12:09:02.203Z,21.84
2023-02-15T12:11:48.465Z,22.13
2023-02-15T12:14:16.902Z,22.65
2023-02-15T12:17:02.685Z,22.89
2023-02-15T12:19:41.688Z,22.72
2023-02-15T12:22:27.086Z,22.63
2023-02-15T12:24:59.369Z,21.30
2023-02-15T12:27:36.097Z,21.19
2023-02-15T12:30:19.606Z,21.51
2023-02-15T12:33:26.673Z,21.14
2023-02-15T12:36:18.912Z,20.89
2023-02-15T12:39:07.305Z,20.61
2023-02-15T12:41:35.392Z,20.99
2023-02-15T12:44:27.006Z,20.90
2023-02-15T12:47:01.420Z,20.57
2023-02-15T12:49:39.594Z,20.62
2023-02-15T12:52:21.255Z,20.76
2023-02-15T12:54:50.055Z,20.92
2023-02-15T12:57:26.938Z,20.58
2023-02-15T12:59:59.172Z,20.81
2023-02-15T13:02:35.964Z,20.66
2023-02-15T13:05:19.628Z,20.00
2023-02-15T13:07:56.345Z,20.22
2023-02-15T13:10:29.456Z,20.13
2023-02-15T13:12:59.130Z,20.49
2023-02-15T13:15:33.941Z,20.31
2023-02-15T13:18:03.545Z,20.51
2023-02-15T13:20:33.364Z,20.63
2023-02-15T13:23:26.090Z,19.85
2023-02-15T13:25:59.860Z,19.83
2023-02-15T13:28:48.108Z,20.04
2023-02-15T13:31:19.784Z,20.14
2023-02-15T13:33:56.291Z,19.88
2023-02-15T13:36:31.366Z,19.68
2023-02-15T13:39:17.781Z,20.03
2023-02-15T13:41:59.317Z,20.06
2023-02-15T13:44:59.702Z,20.20
2023-02-15T13:47:55.306Z,19.83
2023-02-15T13:50:45.374Z,19.48
2023-02-15T13:53:20.748Z,19.86
2023-02-15T13:55:58.516Z,19.61
2023-02-15T13:58:37.676Z,19.57
2023-02-15T14:01:16.013Z,19.91
2023-02-15T14:04:03.199Z,20.34
2023-02-15T14:07:09.993Z,20.57
2023-02-15T14:09:48.721Z,20.86
2023-02-15T14:12:29.049Z,20.74
2023-02-15T14:15:06.591Z,20.67
2023-02-15T14:17:46.555Z,21.46
2023-02-15T14:20:23.137Z,21.56
2023-02-15T14:23:07.477Z,21.63
2023-02-15T14:25:38.018Z,21.72
2023-02-15T14:28:12.629Z,21.98
2023-02-15T14:30:46.314Z,22.11
2023-02-15T14:33:34.392Z,22.14
2023-02-15T14:36:03.946Z,22.44
2023-02-15T14:39:01.105Z,22.60
2023-02-15T14:41:44.160Z,22.65
2023-02-15T14:44:41.248Z,22.54
2023-02-15T14:47:23.905Z,22.73
2023-02-15T14:49:52.008Z,22.90
2023-02-15T14:52:20.098Z,23.21
2023-02-15T14:54:48.156Z,23.23
2023-02-15T14:57:16.136Z,23.39
2023-02-15T15:00:00.714Z,23.62
2023-02-15T15:02:49.749Z,23.77
2023-02-15T15:05:50.241Z,24.15
2023-02-15T15:08:42.024Z,25.16
2023-02-15T15:11:42.509Z,26.00
2023-02-15T15:14:32.539Z,27.12
2023-02-15T15:17:02.311Z,28.41
2023-02-15T15:19:51.808Z,29.38
2023-02-15T15:22:28.982Z,30.90
2023-02-15T15:25:12.442Z,31.71
2023-02-15T15:27:44.426Z,32.11
2023-02-15T15:30:15.756Z,32.85
2023-02-15T15:33:02.250Z,33.29
2023-02-15T15:35:49.589Z,34.25
2023-02-15T15:38:37.163Z,34.42
2023-02-15T15:41:21.185Z,34.92
2023-02-15T15:44:07.804Z,35.42
2023-02-15T15:46:54.679Z,35.81
2023-02-15T15:49:28.288Z,36.06
2023-02-15T15:51:56.272Z,36.64
2023-02-15T15:54:28.408Z,36.65
2023-02-15T15:57:02.104Z,36.86
2023-02-15T15:59:35.952Z,37.58
2023-02-15T16:02:09.011Z,37.97
2023-02-15T16:04:37.268Z,38.06
2023-02-15T16:07:17.578Z,38.13
2023-02-15T16:10:00.534Z,38.39
2023-02-15T16:12:32.893Z,38.46
2023-02-15T16:15:15.247Z,38.76
2023-02-15T16:17:50.662Z,38.90
2023-02-15T16:20:32.744Z,39.29
2023-02-15T16:23:13.735Z,39.18
2023-02-15T16:25:52.772Z,39.23
2023-02-15T16:28:21.421Z,39.71
2023-02-15T16:31:13.950Z,39.70
2023-02-15T16:33:45.859Z,39.92
2023-02-15T16:36:21.264Z,40.37
2023-02-15T16:38:52.212Z,40.60
2023-02-15T16:41:28.303Z,40.51
2023-02-15T16:44:02.358Z,40.95
2023-02-15T16:46:42.282Z,41.57
2023-02-15T16:49:31.486Z,42.45
2023-02-15T16:52:03.010Z,42.51
2023-02-15T16:54:32.482Z,42.61
2023-02-15T16:57:00.977Z,42.83
2023-02-15T16:59:44.485Z,43.00
2023-02-15T17:02:54.530Z,43.19
2023-02-15T17:05:23.385Z,43.43
2023-02-15T17:08:03.624Z,43.43
2023-02-15T17:10:37.591Z,43.78
2023-02-15T17:13:15.648Z,43.93
2023-02-15T17:15:44.947Z,44.47
2023-02-15T17:18:23.229Z,45.58
2023-02-15T17:20:54.871Z,45.77
2023-02-15T17:23:36.141Z,46.31
2023-02-15T17:26:19.773Z,46.43
2023-02-15T17:28:51.486Z,46.78
2023-02-15T17:31:21.508Z,46.93
2023-02-15T17:33:54.942Z,47.43
2023-02-15T17:36:26.559Z,47.90
2023-02-15T17:39:08.036Z,48.24
2023-02-15T17:41:38.376Z,48.43
2023-02-15T17:44:09.469Z,48.44
2023-02-15T17:46:38.513Z,48.38
2023-02-15T17:49:07.057Z,48.73
2023-02-15T17:51:36.148Z,48.82
2023-02-15T17:54:22.786Z,49.31
2023-02-15T17:56:50.796Z,49.99
2023-02-15T17:59:18.972Z,50.40
2023-02-15T18:02:08.081Z,50.94
2023-02-15T18:04:56.404Z,51.25
2023-02-15T18:07:46.435Z,51.78
2023-02-15T18:10:38.265Z,51.94
2023-02-15T18:13:06.443Z,52.07
2023-02-15T18:15:35.386Z,52.34
2023-02-15T18:18:04.998Z,52.40
2023-02-15T18:20:37.145Z,52.74
2023-02-15T18:23:06.571Z,52.79
2023-02-15T18:25:34.630Z,53.33
2023-02-15T18:28:02.567Z,53.45
2023-02-15T18:30:31.339Z,53.54
2023-02-15T18:33:00.107Z,53.84
2023-02-15T18:35:31.724Z,54.11
2023-02-15T18:38:02.104Z,53.99
2023-02-15T18:40:30.780Z,53.95
2023-02-15T18:42:58.888Z,54.03
2023-02-15T18:45:33.293Z,54.15
2023-02-15T18:48:21.577Z,54.68
2023-02-15T18:50:51.172Z,55.01
2023-02-15T18:53:21.477Z,54.99
2023-02-15T18:55:49.809Z,55.33
2023-02-15T18:58:23.830Z,55.30
2023-02-15T19:00:53.048Z,55.22
2023-02-15T19:03:21.203Z,55.62
2023-02-15T19:05:49.320Z,55.89
2023-02-15T19:08:24.951Z,56.03
2023-02-15T19:10:52.991Z,55.95
2023-02-15T19:13:21.031Z,56.03
2023-02-15T19:15:49.577Z,56.23
2023-02-15T19:18:19.316Z,56.26
2023-02-15T19:21:13.088Z,56.45
2023-02-15T19:23:41.115Z,56.81
2023-02-15T19:26:11.083Z,56.85
2023-02-15T19:28:39.038Z,56.99
2023-02-15T19:31:11.800Z,57.26
2023-02-15T19:33:41.190Z,57.59
2023-02-15T19:36:17.671Z,57.72
2023-02-15T19:38:51.267Z,57.94
2023-02-15T19:41:59.181Z,58.04
2023-02-15T19:44:27.293Z,58.05
2023-02-15T19:46:55.802Z,58.40
2023-02-15T19:49:52.372Z,58.34
2023-02-15T19:52:25.818Z,58.57
2023-02-15T19:54:55.003Z,58.45
2023-02-15T19:57:23.789Z,58.36
2023-02-15T19:59:51.952Z,58.70
2023-02-15T20:02:20.394Z,58.66
2023-02-15T20:04:48.482Z,58.73
2023-02-15T20:07:26.289Z,58.79
2023-02-15T20:10:59.788Z,58.95
2023-02-15T20:13:29.211Z,59.22
2023-02-15T20:15:57.309Z,59.09
2023-02-15T20:18:25.257Z,59.31
2023-02-15T20:20:55.424Z,59.28
2023-02-15T20:23:31.424Z,58.95
2023-02-15T20:26:02.771Z,59.61
2023-02-15T20:28:31.901Z,59.54
2023-02-15T20:31:00.376Z,59.71
2023-02-15T20:33:29.029Z,59.92
2023-02-15T20:35:58.634Z,59.96
2023-02-15T20:38:41.172Z,59.80
2023-02-15T20:41:34.221Z,59.88
2023-02-15T20:44:17.226Z,60.11
2023-02-15T20:46:45.680Z,60.62
2023-02-15T20:49:13.732Z,60.47
2023-02-15T20:51:42.333Z,60.30
2023-02-15T20:54:16.588Z,60.33
2023-02-15T20:56:46.073Z,60.42
2023-02-15T20:59:30.774Z,60.42
2023-02-15T21:02:03.160Z,60.48
2023-02-15T21:04:33.674Z,60.40
2023-02-15T21:07:01.882Z,60.31
2023-02-15T21:09:30.011Z,60.37
2023-02-15T21:12:03.747Z,60.36
2023-02-15T21:14:31.851Z,60.19
2023-02-15T21:16:59.869Z,60.30
2023-02-15T21:19:27.691Z,60.42
2023-02-15T21:21:56.573Z,60.16
2023-02-15T21:24:27.976Z,60.32
2023-02-15T21:27:00.811Z,60.33
2023-02-15T21:29:29.154Z,60.38
2023-02-15T21:32:02.574Z,60.32
2023-02-15T21:34:30.732Z,60.40
2023-02-15T21:36:59.309Z,60.48
2023-02-15T21:39:32.647Z,60.34
2023-02-15T21:42:19.390Z,60.33
2023-02-15T21:45:06.244Z,60.31
2023-02-15T21:47:52.793Z,60.71
2023-02-15T21:50:42.654Z,60.46
2023-02-15T21:53:58.702Z,60.70
2023-02-15T21:56:26.790Z,61.30
2023-02-15T21:58:54.976Z,61.56
2023-02-15T22:01:26.290Z,61.20
2023-02-15T22:03:57.998Z,61.05
2023-02-15T22:06:26.139Z,61.12
2023-02-15T22:08:54.117Z,61.14
2023-02-15T22:11:22.893Z,61.08
2023-02-15T22:14:27.755Z,61.24
2023-02-15T22:16:56.565Z,61.18
2023-02-15T22:19:24.623Z,61.01
2023-02-15T22:21:52.646Z,60.83
2023-02-15T22:24:20.964Z,60.72
2023-02-15T22:26:48.989Z,60.55
2023-02-15T22:29:18.313Z,60.51
2023-02-15T22:31:47.473Z,60.50
2023-02-15T22:34:29.381Z,60.75
2023-02-15T22:36:58.748Z,60.85
2023-02-15T22:39:26.727Z,60.57
2023-02-15T22:41:55.177Z,60.54
2023-02-15T22:44:43.588Z,60.71
2023-02-15T22:47:21.281Z,60.66
2023-02-15T22:49:50.161Z,60.50
2023-02-15T22:52:19.022Z,60.49
2023-02-15T22:54:47.266Z,60.31
2023-02-15T22:57:21.054Z,60.25
2023-02-15T22:59:49.680Z,60.25
2023-02-15T23:02:17.747Z,60.51
2023-02-15T23:04:46.084Z,60.77
2023-02-15T23:07:19.133Z,60.73
2023-02-15T23:09:47.211Z,60.98
2023-02-15T23:12:29.394Z,60.85
2023-02-15T23:14:58.456Z,60.92
2023-02-15T23:17:26.570Z,60.81
2023-02-15T23:19:54.612Z,60.77
2023-02-15T23:22:23.179Z,60.81
2023-02-15T23:24:53.921Z,60.71
2023-02-15T23:27:40.720Z,60.61
2023-02-15T23:30:16.522Z,60.57
2023-02-15T23:32:44.679Z,60.56
2023-02-15T23:35:32.712Z,60.62
2023-02-15T23:38:23.448Z,60.95
2023-02-15T23:41:14.222Z,61.16
2023-02-15T23:43:46.571Z,61.22
2023-02-15T23:46:46.344Z,61.30
2023-02-15T23:49:16.743Z,61.34
2023-02-15T23:51:49.474Z,61.61
2023-02-15T23:54:20.244Z,61.64
2023-02-15T23:56:59.633Z,61.71
2023-02-15T23:59:30.625Z,61.95
